Rechercher aéroport 
image banner adimage banner adimage banner ad
image banner ad

5CL8 - Creekside

Situé à Arvin, United States

ICAO - 5CL8, IATA -

Données fournies par Airmate  

Information générale

Coordonnées: N35°10'34" W118°55'23"
Élévation : 335 feet MSL.
Variation magnétique : 14° East
Voir autres Aéroports à California

Données opérationnelles

Special qualification required
Heure actuelle UTC:
Heure actuelle locale:
Météo à : KBFL - Meadows Field ( 31 km )
METAR: KBFL 292054Z 31012G15KT 7SM CLR 38/11 A2985 RMK AO2 SLP099 T03780106 56019
TAF: KBFL 291729Z 2918/3018 VRB03KT P6SM SKC FM292000 31010G16KT P6SM SKC FM300600 VRB05KT P6SM BKN250
Voir NOTAMs / SUP AIP / TFR affectant cet aéroport [VIEW]
Fréquences de communication: [VIEW]

Pistes:

Identifiant RWYQFULongueur (ft)Largeur (ft)SurfaceLDA (ft)
162000100OTHER
342000100OTHER

Coordonnées de l'aéroport

Adresse: Arvin United States

Vue satellite de 5CL8